EZY8671 EHAM-EGKK
Flight info
| Callsign | EZY8671 |
|---|---|
| Flight time | 0h 50m |
| Altitude | 24000 |
| Route | IDRID L980 ABNED Z344 AMRIV Q63 ARREK Y4 TEBRA |
| Aircraft | A20N/M-SDE2E3FGHIRWXY/LB1 |
Departure
| Time | 2026-05-06 19:55 |
|---|---|
| Airport | Amsterdam Airport Schiphol (EHAM) |
Arrival
| Time | 2026-05-06 20:45 |
|---|---|
| Airport | London Gatwick Airport (EGKK) |
| Time | Latitude | Longitude | Altitude | Speed | Heading |
|---|---|---|---|---|---|
| 2026-05-06 19:36 | 52.31211 | 4.74444 | 0 ft | 0 kts | 274° |
| 2026-05-06 19:50 | 52.31211 | 4.74435 | 0 ft | 3 kts | 274° |
| 2026-05-06 19:50 | 52.31213 | 4.74396 | -1 ft | 8 kts | 274° |
| 2026-05-06 19:51 | 52.31185 | 4.74277 | -5 ft | 15 kts | 230° |
| 2026-05-06 19:51 | 52.31109 | 4.74257 | -4 ft | 11 kts | 182° |
| 2026-05-06 19:51 | 52.31012 | 4.74244 | -6 ft | 17 kts | 185° |
| 2026-05-06 19:51 | 52.30877 | 4.74230 | -7 ft | 22 kts | 183° |
| 2026-05-06 19:52 | 52.30721 | 4.74217 | -4 ft | 24 kts | 183° |
| 2026-05-06 19:52 | 52.30597 | 4.74092 | -2 ft | 24 kts | 265° |
| 2026-05-06 19:52 | 52.30615 | 4.73931 | -2 ft | 14 kts | 313° |
| 2026-05-06 19:52 | 52.30708 | 4.73841 | -3 ft | 13 kts | 329° |
| 2026-05-06 19:53 | 52.30766 | 4.73780 | 0 ft | 9 kts | 345° |
| 2026-05-06 19:53 | 52.30796 | 4.73790 | -1 ft | 0 kts | 0° |
| 2026-05-06 19:54 | 52.30830 | 4.73792 | -1 ft | 28 kts | 2° |
| 2026-05-06 19:55 | 52.31372 | 4.73840 | -4 ft | 122 kts | 3° |
| 2026-05-06 19:55 | 52.32386 | 4.73876 | 456 ft | 155 kts | 355° |
| 2026-05-06 19:55 | 52.33430 | 4.73749 | 1426 ft | 155 kts | 350° |
| 2026-05-06 19:55 | 52.34439 | 4.72980 | 2295 ft | 167 kts | 336° |
| 2026-05-06 19:56 | 52.35551 | 4.72183 | 2733 ft | 187 kts | 346° |
| 2026-05-06 19:56 | 52.36899 | 4.71740 | 3258 ft | 211 kts | 357° |
| 2026-05-06 19:56 | 52.38459 | 4.71640 | 3964 ft | 232 kts | 3° |
| 2026-05-06 19:56 | 52.40122 | 4.71733 | 4442 ft | 252 kts | 5° |
| 2026-05-06 19:57 | 52.41880 | 4.71901 | 4561 ft | 252 kts | 5° |
| 2026-05-06 19:57 | 52.43651 | 4.71853 | 4669 ft | 256 kts | 349° |
| 2026-05-06 19:57 | 52.45246 | 4.70511 | 4930 ft | 268 kts | 320° |
| 2026-05-06 19:57 | 52.46341 | 4.67882 | 5459 ft | 295 kts | 293° |
| 2026-05-06 19:58 | 52.46674 | 4.64464 | 6093 ft | 322 kts | 269° |
| 2026-05-06 19:58 | 52.46143 | 4.60957 | 6850 ft | 336 kts | 245° |
| 2026-05-06 19:58 | 52.44942 | 4.57591 | 7972 ft | 339 kts | 238° |
| 2026-05-06 19:58 | 52.43698 | 4.54362 | 9134 ft | 340 kts | 239° |
| 2026-05-06 19:59 | 52.42536 | 4.50981 | 10235 ft | 342 kts | 243° |
| 2026-05-06 19:59 | 52.41473 | 4.47473 | 11236 ft | 345 kts | 245° |
| 2026-05-06 19:59 | 52.40476 | 4.43889 | 12238 ft | 348 kts | 247° |
| 2026-05-06 19:59 | 52.39451 | 4.40272 | 13206 ft | 352 kts | 243° |
| 2026-05-06 20:00 | 52.38292 | 4.36708 | 14112 ft | 356 kts | 243° |
| 2026-05-06 20:00 | 52.37125 | 4.33119 | 15034 ft | 358 kts | 243° |
| 2026-05-06 20:00 | 52.35949 | 4.29508 | 15894 ft | 361 kts | 243° |
| 2026-05-06 20:00 | 52.34760 | 4.25866 | 16734 ft | 365 kts | 243° |
| 2026-05-06 20:01 | 52.33559 | 4.22191 | 17569 ft | 368 kts | 243° |
| 2026-05-06 20:01 | 52.32342 | 4.18473 | 18357 ft | 373 kts | 243° |
| 2026-05-06 20:01 | 52.31006 | 4.14824 | 19085 ft | 376 kts | 237° |
| 2026-05-06 20:01 | 52.29411 | 4.11393 | 19797 ft | 381 kts | 233° |
| 2026-05-06 20:02 | 52.27767 | 4.07971 | 20494 ft | 384 kts | 233° |
| 2026-05-06 20:02 | 52.26130 | 4.04551 | 21185 ft | 388 kts | 233° |
| 2026-05-06 20:02 | 52.24463 | 4.01066 | 21890 ft | 391 kts | 233° |
| 2026-05-06 20:02 | 52.22781 | 3.97550 | 22578 ft | 394 kts | 233° |
| 2026-05-06 20:03 | 52.21075 | 3.93987 | 23236 ft | 399 kts | 233° |
| 2026-05-06 20:03 | 52.19344 | 3.90378 | 23537 ft | 412 kts | 233° |
| 2026-05-06 20:03 | 52.17545 | 3.86631 | 23676 ft | 426 kts | 233° |
| 2026-05-06 20:03 | 52.15711 | 3.82822 | 23804 ft | 438 kts | 233° |
| 2026-05-06 20:04 | 52.13803 | 3.78864 | 23916 ft | 450 kts | 233° |
| 2026-05-06 20:04 | 52.11854 | 3.74828 | 23964 ft | 463 kts | 233° |
| 2026-05-06 20:04 | 52.09827 | 3.70638 | 23971 ft | 468 kts | 233° |
| 2026-05-06 20:04 | 52.07812 | 3.66481 | 23965 ft | 468 kts | 232° |
| 2026-05-06 20:05 | 52.05790 | 3.62315 | 23967 ft | 468 kts | 232° |
| 2026-05-06 20:05 | 52.03767 | 3.58153 | 24147 ft | 471 kts | 232° |
| 2026-05-06 20:05 | 52.01736 | 3.53983 | 24446 ft | 472 kts | 232° |
| 2026-05-06 20:05 | 51.99695 | 3.49799 | 24701 ft | 473 kts | 232° |
| 2026-05-06 20:06 | 51.97694 | 3.45575 | 24971 ft | 472 kts | 234° |
| 2026-05-06 20:06 | 51.95761 | 3.41274 | 25368 ft | 469 kts | 235° |
| 2026-05-06 20:06 | 51.93889 | 3.37062 | 26342 ft | 454 kts | 235° |
| 2026-05-06 20:06 | 51.92150 | 3.32908 | 26579 ft | 432 kts | 242° |
| 2026-05-06 20:07 | 51.90983 | 3.28584 | 26698 ft | 407 kts | 253° |
| 2026-05-06 20:07 | 51.90402 | 3.24257 | 26818 ft | 400 kts | 262° |
| 2026-05-06 20:07 | 51.90030 | 3.19732 | 26944 ft | 408 kts | 262° |
| 2026-05-06 20:07 | 51.89646 | 3.15175 | 27070 ft | 408 kts | 262° |
| 2026-05-06 20:08 | 51.89303 | 3.10626 | 27194 ft | 408 kts | 263° |
| 2026-05-06 20:08 | 51.88988 | 3.06049 | 27313 ft | 409 kts | 263° |
| 2026-05-06 20:08 | 51.88673 | 3.01441 | 27439 ft | 410 kts | 263° |
| 2026-05-06 20:08 | 51.88355 | 2.96840 | 27563 ft | 411 kts | 263° |
| 2026-05-06 20:09 | 51.88029 | 2.92238 | 27680 ft | 413 kts | 263° |
| 2026-05-06 20:09 | 51.87701 | 2.87677 | 27806 ft | 413 kts | 263° |
| 2026-05-06 20:09 | 51.87364 | 2.83042 | 27933 ft | 415 kts | 263° |
| 2026-05-06 20:09 | 51.87022 | 2.78390 | 27983 ft | 416 kts | 263° |
| 2026-05-06 20:10 | 51.86680 | 2.73748 | 27983 ft | 415 kts | 263° |
| 2026-05-06 20:10 | 51.86335 | 2.69108 | 27986 ft | 416 kts | 263° |
| 2026-05-06 20:10 | 51.85988 | 2.64461 | 27990 ft | 416 kts | 263° |
| 2026-05-06 20:10 | 51.85640 | 2.59820 | 27988 ft | 416 kts | 263° |
| 2026-05-06 20:11 | 51.85290 | 2.55180 | 27988 ft | 416 kts | 263° |
| 2026-05-06 20:11 | 51.84938 | 2.50531 | 27991 ft | 416 kts | 263° |
| 2026-05-06 20:11 | 51.84584 | 2.45890 | 27991 ft | 416 kts | 263° |
| 2026-05-06 20:11 | 51.84228 | 2.41249 | 27990 ft | 416 kts | 263° |
| 2026-05-06 20:12 | 51.83871 | 2.36610 | 27995 ft | 416 kts | 263° |
| 2026-05-06 20:12 | 51.83484 | 2.31995 | 27989 ft | 416 kts | 258° |
| 2026-05-06 20:12 | 51.82587 | 2.27539 | 27992 ft | 418 kts | 245° |
| 2026-05-06 20:12 | 51.81045 | 2.23566 | 27996 ft | 420 kts | 231° |
| 2026-05-06 20:13 | 51.79098 | 2.20037 | 27998 ft | 420 kts | 229° |
| 2026-05-06 20:13 | 51.77114 | 2.16585 | 27994 ft | 420 kts | 228° |
| 2026-05-06 20:13 | 51.75118 | 2.13115 | 27997 ft | 420 kts | 228° |
| 2026-05-06 20:13 | 51.73133 | 2.09644 | 27996 ft | 421 kts | 229° |
| 2026-05-06 20:14 | 51.71157 | 2.06171 | 27995 ft | 419 kts | 229° |
| 2026-05-06 20:14 | 51.69212 | 2.02745 | 27996 ft | 408 kts | 229° |
| 2026-05-06 20:14 | 51.67348 | 1.99459 | 27996 ft | 406 kts | 229° |
| 2026-05-06 20:14 | 51.65401 | 1.96028 | 27996 ft | 408 kts | 229° |
| 2026-05-06 20:15 | 51.63504 | 1.92690 | 27996 ft | 408 kts | 229° |
| 2026-05-06 20:15 | 51.61584 | 1.89317 | 27818 ft | 405 kts | 229° |
| 2026-05-06 20:15 | 51.59682 | 1.85981 | 27342 ft | 403 kts | 229° |
| 2026-05-06 20:15 | 51.57792 | 1.82670 | 26781 ft | 400 kts | 229° |
| 2026-05-06 20:16 | 51.55922 | 1.79400 | 26182 ft | 397 kts | 229° |
| 2026-05-06 20:16 | 51.54060 | 1.76147 | 25594 ft | 393 kts | 229° |
| 2026-05-06 20:16 | 51.52216 | 1.72931 | 25211 ft | 385 kts | 228° |
| 2026-05-06 20:16 | 51.50443 | 1.69844 | 24883 ft | 376 kts | 229° |
| 2026-05-06 20:17 | 51.48681 | 1.66703 | 24407 ft | 370 kts | 235° |
| 2026-05-06 20:17 | 51.47541 | 1.63137 | 24304 ft | 363 kts | 253° |
| 2026-05-06 20:17 | 51.47053 | 1.59147 | 24114 ft | 368 kts | 261° |
| 2026-05-06 20:17 | 51.46657 | 1.54953 | 24033 ft | 391 kts | 261° |
| 2026-05-06 20:18 | 51.46247 | 1.50596 | 23992 ft | 396 kts | 261° |
| 2026-05-06 20:18 | 51.45835 | 1.46236 | 23664 ft | 394 kts | 261° |
| 2026-05-06 20:18 | 51.45426 | 1.41904 | 22902 ft | 389 kts | 261° |
| 2026-05-06 20:18 | 51.45020 | 1.37635 | 22621 ft | 388 kts | 261° |
| 2026-05-06 20:19 | 51.44611 | 1.33369 | 22391 ft | 386 kts | 261° |
| 2026-05-06 20:19 | 51.44204 | 1.29134 | 22209 ft | 379 kts | 261° |
| 2026-05-06 20:19 | 51.43809 | 1.25048 | 22018 ft | 361 kts | 261° |
| 2026-05-06 20:19 | 51.43436 | 1.21198 | 21816 ft | 341 kts | 261° |
| 2026-05-06 20:20 | 51.43082 | 1.17561 | 21422 ft | 328 kts | 261° |
| 2026-05-06 20:20 | 51.42725 | 1.13929 | 20754 ft | 324 kts | 261° |
| 2026-05-06 20:20 | 51.42376 | 1.10401 | 20085 ft | 322 kts | 261° |
| 2026-05-06 20:20 | 51.42023 | 1.06877 | 19444 ft | 319 kts | 261° |
| 2026-05-06 20:21 | 51.41669 | 1.03394 | 18827 ft | 316 kts | 261° |
| 2026-05-06 20:21 | 51.41316 | 0.99929 | 18188 ft | 313 kts | 261° |
| 2026-05-06 20:21 | 51.40963 | 0.96499 | 17499 ft | 311 kts | 261° |
| 2026-05-06 20:21 | 51.40608 | 0.93089 | 16823 ft | 308 kts | 261° |
| 2026-05-06 20:22 | 51.40260 | 0.89757 | 16161 ft | 306 kts | 261° |
| 2026-05-06 20:22 | 51.39905 | 0.86400 | 15510 ft | 304 kts | 261° |
| 2026-05-06 20:22 | 51.39512 | 0.83052 | 14871 ft | 303 kts | 254° |
| 2026-05-06 20:22 | 51.38544 | 0.80134 | 14219 ft | 303 kts | 230° |
| 2026-05-06 20:23 | 51.36880 | 0.78076 | 13563 ft | 305 kts | 205° |
| 2026-05-06 20:23 | 51.34820 | 0.77300 | 12879 ft | 305 kts | 183° |
| 2026-05-06 20:23 | 51.32711 | 0.77266 | 12351 ft | 299 kts | 181° |
| 2026-05-06 20:23 | 51.30626 | 0.77265 | 12119 ft | 303 kts | 181° |
| 2026-05-06 20:24 | 51.28509 | 0.77261 | 12010 ft | 304 kts | 181° |
| 2026-05-06 20:24 | 51.26406 | 0.77257 | 11983 ft | 300 kts | 181° |
| 2026-05-06 20:24 | 51.24303 | 0.77253 | 11986 ft | 302 kts | 181° |
| 2026-05-06 20:24 | 51.22203 | 0.77248 | 11983 ft | 302 kts | 181° |
| 2026-05-06 20:25 | 51.20104 | 0.77243 | 11984 ft | 302 kts | 181° |
| 2026-05-06 20:25 | 51.18034 | 0.77238 | 11981 ft | 301 kts | 181° |
| 2026-05-06 20:25 | 51.15932 | 0.77233 | 11983 ft | 301 kts | 181° |
| 2026-05-06 20:25 | 51.13833 | 0.77227 | 12014 ft | 301 kts | 181° |
| 2026-05-06 20:26 | 51.11732 | 0.77222 | 12009 ft | 301 kts | 181° |
| 2026-05-06 20:26 | 51.09637 | 0.77218 | 12016 ft | 301 kts | 181° |
| 2026-05-06 20:26 | 51.07540 | 0.77213 | 12017 ft | 302 kts | 181° |
| 2026-05-06 20:26 | 51.05437 | 0.77209 | 12013 ft | 301 kts | 181° |
| 2026-05-06 20:27 | 51.03344 | 0.77141 | 12016 ft | 300 kts | 189° |
| 2026-05-06 20:27 | 51.01413 | 0.76078 | 12023 ft | 298 kts | 214° |
| 2026-05-06 20:27 | 50.99928 | 0.73832 | 12020 ft | 295 kts | 236° |
| 2026-05-06 20:27 | 50.98906 | 0.71038 | 12019 ft | 294 kts | 245° |
| 2026-05-06 20:28 | 50.98053 | 0.68063 | 12015 ft | 294 kts | 248° |
| 2026-05-06 20:28 | 50.97238 | 0.65086 | 12015 ft | 294 kts | 248° |
| 2026-05-06 20:28 | 50.96414 | 0.62154 | 12009 ft | 287 kts | 247° |
| 2026-05-06 20:28 | 50.95603 | 0.59368 | 11910 ft | 275 kts | 246° |
| 2026-05-06 20:29 | 50.94803 | 0.56680 | 11812 ft | 264 kts | 246° |
| 2026-05-06 20:29 | 50.94025 | 0.54098 | 11561 ft | 257 kts | 246° |
| 2026-05-06 20:29 | 50.93253 | 0.51546 | 11187 ft | 257 kts | 246° |
| 2026-05-06 20:29 | 50.92486 | 0.49011 | 10545 ft | 264 kts | 246° |
| 2026-05-06 20:30 | 50.91711 | 0.46354 | 10168 ft | 261 kts | 252° |
| 2026-05-06 20:30 | 50.91850 | 0.40939 | 9991 ft | 250 kts | 288° |
| 2026-05-06 20:30 | 50.92348 | 0.38304 | 9986 ft | 248 kts | 287° |
| 2026-05-06 20:31 | 50.92831 | 0.35686 | 9934 ft | 247 kts | 287° |
| 2026-05-06 20:31 | 50.93290 | 0.33061 | 9663 ft | 245 kts | 283° |
| 2026-05-06 20:31 | 50.93611 | 0.30448 | 9378 ft | 244 kts | 281° |
| 2026-05-06 20:31 | 50.93916 | 0.27810 | 9080 ft | 241 kts | 281° |
| 2026-05-06 20:32 | 50.94219 | 0.25181 | 8775 ft | 242 kts | 281° |
| 2026-05-06 20:32 | 50.94522 | 0.22555 | 8433 ft | 243 kts | 281° |
| 2026-05-06 20:32 | 50.94829 | 0.19916 | 8116 ft | 241 kts | 281° |
| 2026-05-06 20:32 | 50.95128 | 0.17351 | 8003 ft | 241 kts | 281° |
| 2026-05-06 20:33 | 50.95434 | 0.14723 | 7989 ft | 242 kts | 281° |
| 2026-05-06 20:33 | 50.95740 | 0.12101 | 8006 ft | 242 kts | 281° |
| 2026-05-06 20:33 | 50.96045 | 0.09480 | 8010 ft | 242 kts | 281° |
| 2026-05-06 20:33 | 50.96349 | 0.06858 | 8015 ft | 241 kts | 281° |
| 2026-05-06 20:34 | 50.96654 | 0.04237 | 8010 ft | 242 kts | 281° |
| 2026-05-06 20:34 | 50.96959 | 0.01615 | 8011 ft | 241 kts | 281° |
| 2026-05-06 20:34 | 50.97262 | -0.00998 | 8013 ft | 241 kts | 281° |
| 2026-05-06 20:34 | 50.97566 | -0.03614 | 7978 ft | 239 kts | 281° |
| 2026-05-06 20:35 | 50.97868 | -0.06214 | 7722 ft | 239 kts | 281° |
| 2026-05-06 20:35 | 50.98170 | -0.08799 | 7423 ft | 238 kts | 281° |
| 2026-05-06 20:35 | 50.98469 | -0.11383 | 7104 ft | 238 kts | 281° |
| 2026-05-06 20:35 | 50.98766 | -0.13962 | 6804 ft | 236 kts | 281° |
| 2026-05-06 20:36 | 50.99067 | -0.16548 | 6334 ft | 242 kts | 281° |
| 2026-05-06 20:36 | 50.99272 | -0.18314 | 5946 ft | 248 kts | 281° |
| 2026-05-06 20:36 | 50.99692 | -0.21958 | 5216 ft | 256 kts | 281° |
| 2026-05-06 20:36 | 51.00005 | -0.24699 | 5034 ft | 247 kts | 281° |
| 2026-05-06 20:37 | 51.00305 | -0.27328 | 4949 ft | 235 kts | 281° |
| 2026-05-06 20:37 | 51.00493 | -0.28999 | 4845 ft | 230 kts | 281° |
| 2026-05-06 20:37 | 51.00772 | -0.31492 | 4537 ft | 229 kts | 281° |
| 2026-05-06 20:37 | 51.01046 | -0.33978 | 4240 ft | 229 kts | 281° |
| 2026-05-06 20:38 | 51.01313 | -0.36452 | 4034 ft | 225 kts | 281° |
| 2026-05-06 20:38 | 51.01580 | -0.38946 | 3989 ft | 230 kts | 282° |
| 2026-05-06 20:38 | 51.02169 | -0.41260 | 3837 ft | 225 kts | 304° |
| 2026-05-06 20:38 | 51.03040 | -0.43279 | 3702 ft | 217 kts | 306° |
| 2026-05-06 20:39 | 51.03870 | -0.45182 | 3629 ft | 207 kts | 306° |
| 2026-05-06 20:39 | 51.04669 | -0.47023 | 3549 ft | 198 kts | 306° |
| 2026-05-06 20:39 | 51.05433 | -0.48793 | 3453 ft | 190 kts | 306° |
| 2026-05-06 20:39 | 51.06158 | -0.50453 | 3307 ft | 178 kts | 311° |
| 2026-05-06 20:40 | 51.07150 | -0.51399 | 3041 ft | 177 kts | 352° |
| 2026-05-06 20:40 | 51.08350 | -0.51022 | 2997 ft | 179 kts | 32° |
| 2026-05-06 20:40 | 51.09315 | -0.49740 | 2997 ft | 181 kts | 41° |
| 2026-05-06 20:40 | 51.10238 | -0.48379 | 3002 ft | 181 kts | 47° |
| 2026-05-06 20:41 | 51.10903 | -0.46687 | 3001 ft | 182 kts | 65° |
| 2026-05-06 20:41 | 51.11288 | -0.44762 | 3003 ft | 184 kts | 74° |
| 2026-05-06 20:41 | 51.11554 | -0.42819 | 2994 ft | 171 kts | 76° |
| 2026-05-06 20:41 | 51.11800 | -0.41024 | 2839 ft | 162 kts | 75° |
| 2026-05-06 20:42 | 51.12037 | -0.39295 | 2621 ft | 158 kts | 75° |
| 2026-05-06 20:42 | 51.12273 | -0.37581 | 2417 ft | 162 kts | 75° |
| 2026-05-06 20:42 | 51.12509 | -0.35851 | 2214 ft | 155 kts | 75° |
| 2026-05-06 20:42 | 51.12730 | -0.34238 | 1985 ft | 143 kts | 75° |
| 2026-05-06 20:43 | 51.12935 | -0.32746 | 1801 ft | 133 kts | 74° |
| 2026-05-06 20:43 | 51.13132 | -0.31320 | 1606 ft | 134 kts | 74° |
| 2026-05-06 20:43 | 51.13343 | -0.29842 | 1193 ft | 142 kts | 75° |
| 2026-05-06 20:43 | 51.13526 | -0.28408 | 1239 ft | 131 kts | 78° |
| 2026-05-06 20:44 | 51.13710 | -0.26959 | 1055 ft | 132 kts | 74° |
| 2026-05-06 20:44 | 51.13900 | -0.25577 | 867 ft | 128 kts | 77° |
| 2026-05-06 20:44 | 51.14098 | -0.24184 | 685 ft | 128 kts | 77° |
| 2026-05-06 20:44 | 51.14293 | -0.22793 | 515 ft | 129 kts | 78° |
| 2026-05-06 20:45 | 51.14476 | -0.21440 | 351 ft | 127 kts | 78° |
| 2026-05-06 20:45 | 51.14673 | -0.20064 | 223 ft | 125 kts | 78° |
| 2026-05-06 20:45 | 51.14842 | -0.18826 | 213 ft | 102 kts | 78° |
| 2026-05-06 20:45 | 51.14917 | -0.18235 | 210 ft | 35 kts | 77° |
| 2026-05-06 20:46 | 51.15007 | -0.17889 | 207 ft | 17 kts | 56° |
| 2026-05-06 20:46 | 51.15082 | -0.17753 | 210 ft | 6 kts | 26° |
| 2026-05-06 20:46 | 51.15136 | -0.17752 | 205 ft | 10 kts | 352° |
| 2026-05-06 20:46 | 51.15218 | -0.17769 | 207 ft | 14 kts | 353° |
| 2026-05-06 20:47 | 51.15253 | -0.17778 | 211 ft | 0 kts | 344° |
| 2026-05-06 20:48 | 51.15254 | -0.17778 | 211 ft | 0 kts | 344° |
| 2026-05-06 20:48 | 51.15232 | -0.17768 | 208 ft | 0 kts | 344° |
| 2026-05-06 20:48 | 51.15245 | -0.17794 | 213 ft | 4 kts | 287° |
| 2026-05-06 20:48 | 51.15238 | -0.17863 | 209 ft | 8 kts | 258° |
| 2026-05-06 20:49 | 51.15230 | -0.17925 | 214 ft | 0 kts | 258° |
| 2026-05-06 20:49 | 51.15229 | -0.17928 | 214 ft | 2 kts | 258° |
| 2026-05-06 20:50 | 51.15219 | -0.18004 | 207 ft | 13 kts | 258° |
| 2026-05-06 20:50 | 51.15228 | -0.18100 | 207 ft | 1 kts | 326° |
| 2026-05-06 20:50 | 51.15279 | -0.18106 | 204 ft | 14 kts | 354° |
| 2026-05-06 20:50 | 51.15368 | -0.18134 | 209 ft | 12 kts | 348° |
| 2026-05-06 20:51 | 51.15430 | -0.18154 | 211 ft | 10 kts | 348° |
| 2026-05-06 20:51 | 51.15602 | -0.18218 | 204 ft | 245 kts | 340° |
| 2026-05-06 20:51 | 51.15631 | -0.18227 | 210 ft | 4 kts | 7° |
| 2026-05-06 20:51 | 51.15665 | -0.18192 | 212 ft | 9 kts | 39° |
| 2026-05-06 20:52 | 51.15754 | -0.18172 | 204 ft | 19 kts | 351° |
| 2026-05-06 20:52 | 51.15872 | -0.18215 | 207 ft | 20 kts | 346° |
| 2026-05-06 20:52 | 51.16003 | -0.18247 | 207 ft | 18 kts | 20° |
| 2026-05-06 20:52 | 51.16035 | -0.18148 | 208 ft | 15 kts | 57° |
| 2026-05-06 20:53 | 51.16063 | -0.18009 | 209 ft | 0 kts | 77° |